Time;durP1;ratioP1;P1;durP2;ratioP2;P2;SDS_P1;SDS_P2;PMS_P1;PMS_P2;Temp;Humidity;BMP_temperature;BMP_pressure;BME280_temperature;BME280_humidity;BME280_pressure;Samples;Min_cycle;Max_cycle;Signal;HPM_P1;HPM_P2
2024/01/21 00:01:25;;;;;;;25.65;12.88;;;-5.60;99.90;;;;;;5035571;28;20110;-75
2024/01/21 00:03:51;;;;;;;24.75;13.23;;;-5.70;99.90;;;;;;5060010;28;20112;-75
2024/01/21 00:06:16;;;;;;;28.73;14.20;;;-5.70;99.90;;;;;;5048292;28;20028;-75
2024/01/21 00:08:43;;;;;;;26.20;13.00;;;-5.80;99.90;;;;;;5032503;28;20442;-75
2024/01/21 00:11:08;;;;;;;25.80;12.98;;;-5.80;99.90;;;;;;5056719;28;20036;-75
2024/01/21 00:13:34;;;;;;;32.75;14.38;;;-5.70;99.90;;;;;;5042272;28;20409;-75
2024/01/21 00:16:00;;;;;;;24.85;12.88;;;-5.70;99.90;;;;;;5038045;28;20029;-75
2024/01/21 00:18:26;;;;;;;29.75;13.90;;;-5.70;99.90;;;;;;5030441;28;20075;-75
2024/01/21 00:20:52;;;;;;;28.73;13.43;;;-5.60;99.90;;;;;;5043945;28;20059;-75
2024/01/21 00:23:18;;;;;;;35.33;14.73;;;-5.60;99.90;;;;;;5035348;28;20017;-75
2024/01/21 00:25:43;;;;;;;35.95;14.85;;;-5.60;99.90;;;;;;5035061;28;20057;-76
2024/01/21 00:28:09;;;;;;;31.13;13.48;;;-5.60;99.90;;;;;;5033723;28;20099;-75
2024/01/21 00:30:34;;;;;;;31.35;14.45;;;-5.60;99.90;;;;;;5030938;28;20026;-75
2024/01/21 00:33:00;;;;;;;26.45;12.55;;;-5.50;99.90;;;;;;5042149;28;20100;-75
2024/01/21 00:35:26;;;;;;;23.58;12.15;;;-5.60;99.90;;;;;;5031342;28;20025;-75
2024/01/21 00:37:52;;;;;;;26.85;12.57;;;-5.50;99.90;;;;;;5029628;28;20037;-76
2024/01/21 00:40:17;;;;;;;27.30;13.50;;;-5.50;99.90;;;;;;5037269;28;20017;-76
2024/01/21 00:42:43;;;;;;;29.23;13.40;;;-5.50;99.90;;;;;;5048458;28;20025;-75
2024/01/21 00:45:09;;;;;;;24.75;12.77;;;-5.60;99.90;;;;;;5049125;28;20025;-76
2024/01/21 00:47:34;;;;;;;24.60;12.40;;;-5.70;99.90;;;;;;5040218;28;20034;-75
2024/01/21 00:50:00;;;;;;;26.02;12.85;;;-5.70;99.90;;;;;;5041392;28;20498;-77
2024/01/21 00:52:26;;;;;;;27.80;12.93;;;-5.80;99.90;;;;;;5032009;28;20041;-77
2024/01/21 00:54:53;;;;;;;26.92;12.93;;;-5.90;99.90;;;;;;5049545;28;20050;-78
2024/01/21 00:57:19;;;;;;;25.40;12.05;;;-5.90;99.90;;;;;;5051987;28;20055;-78
2024/01/21 00:59:45;;;;;;;31.83;15.23;;;-6.00;99.90;;;;;;5037442;28;20978;-77
2024/01/21 01:02:10;;;;;;;36.50;14.30;;;-6.00;99.90;;;;;;5035778;28;20108;-77
2024/01/21 01:04:36;;;;;;;27.25;13.13;;;-6.00;99.90;;;;;;5044598;28;20021;-77
2024/01/21 01:07:02;;;;;;;26.23;12.68;;;-6.00;99.90;;;;;;5049686;28;20470;-78
2024/01/21 01:09:27;;;;;;;26.30;12.32;;;-6.10;99.90;;;;;;5036236;28;20054;-79
2024/01/21 01:11:53;;;;;;;30.15;13.25;;;-6.20;99.90;;;;;;5032167;28;20040;-76
2024/01/21 01:14:20;;;;;;;26.33;12.52;;;-6.20;99.90;;;;;;5050189;28;20447;-75
2024/01/21 01:16:45;;;;;;;26.00;11.82;;;-6.20;99.90;;;;;;5037400;28;20236;-75
2024/01/21 01:19:11;;;;;;;31.52;12.77;;;-6.20;99.90;;;;;;5029973;28;20024;-75
2024/01/21 01:21:37;;;;;;;28.33;12.50;;;-6.20;99.90;;;;;;5043241;28;20037;-75
2024/01/21 01:24:03;;;;;;;30.17;13.02;;;-6.20;99.90;;;;;;5047494;28;20017;-76
2024/01/21 01:26:29;;;;;;;25.85;12.10;;;-6.20;99.90;;;;;;5031232;28;20037;-76
2024/01/21 01:28:54;;;;;;;24.40;11.15;;;-6.30;99.90;;;;;;5037796;28;20378;-75
2024/01/21 01:31:20;;;;;;;26.50;12.40;;;-6.30;99.90;;;;;;5038545;28;20040;-77
2024/01/21 01:33:47;;;;;;;23.30;11.63;;;-6.20;99.90;;;;;;5042018;28;20258;-75
2024/01/21 01:36:12;;;;;;;27.63;11.57;;;-6.30;99.90;;;;;;5031541;28;20029;-75
2024/01/21 01:38:39;;;;;;;23.90;11.52;;;-6.40;99.90;;;;;;5043300;28;20032;-75
2024/01/21 01:41:05;;;;;;;22.65;11.23;;;-6.30;99.90;;;;;;5048118;28;20090;-75
2024/01/21 01:43:31;;;;;;;25.17;10.55;;;-6.30;99.90;;;;;;5032964;28;20026;-75
2024/01/21 01:46:00;;;;;;;22.73;10.60;;;-6.30;99.90;;;;;;5032637;28;20556;-75
2024/01/21 01:48:28;;;;;;;25.08;11.05;;;-6.40;99.90;;;;;;5041892;28;20049;-75
2024/01/21 01:50:56;;;;;;;23.15;10.30;;;-6.40;99.90;;;;;;5038498;28;20086;-75
2024/01/21 01:53:22;;;;;;;20.92;10.07;;;-6.40;99.90;;;;;;5031808;28;20476;-75
2024/01/21 01:55:48;;;;;;;21.30;10.43;;;-6.30;99.90;;;;;;5043245;28;20038;-74
2024/01/21 01:58:16;;;;;;;20.05;9.57;;;-6.30;99.90;;;;;;5034524;28;20021;-75
2024/01/21 02:00:42;;;;;;;22.70;9.20;;;-6.30;99.90;;;;;;5032921;28;20025;-75
2024/01/21 02:03:15;;;;;;;21.55;9.05;;;-6.30;99.90;;;;;;5054229;28;20055;-74
2024/01/21 02:05:40;;;;;;;20.45;8.85;;;-6.30;99.90;;;;;;5048839;28;20033;-74
2024/01/21 02:08:06;;;;;;;17.83;9.82;;;-6.30;99.90;;;;;;5042623;28;20094;-74
2024/01/21 02:10:32;;;;;;;17.33;9.20;;;-6.30;99.90;;;;;;5035513;28;20029;-74
2024/01/21 02:12:58;;;;;;;18.50;9.15;;;-6.30;99.90;;;;;;5049757;28;20029;-74
2024/01/21 02:15:23;;;;;;;17.23;7.80;;;-6.30;99.90;;;;;;5044362;28;20037;-76
2024/01/21 02:17:50;;;;;;;21.67;9.73;;;-6.20;99.90;;;;;;5037891;28;20017;-76
2024/01/21 02:20:16;;;;;;;17.23;8.05;;;-6.20;99.90;;;;;;5038908;28;20013;-77
2024/01/21 02:22:42;;;;;;;23.38;11.00;;;-6.20;99.90;;;;;;5044900;28;20039;-77
2024/01/21 02:25:09;;;;;;;20.35;8.57;;;-6.20;99.90;;;;;;5037953;28;20049;-77
2024/01/21 02:27:36;;;;;;;17.92;9.25;;;-6.20;99.90;;;;;;5035775;28;20107;-77
2024/01/21 02:30:03;;;;;;;21.30;9.82;;;-6.20;99.90;;;;;;5049449;28;20036;-75
2024/01/21 02:32:29;;;;;;;16.45;8.95;;;-6.20;99.90;;;;;;5042943;28;20036;-76
2024/01/21 02:34:55;;;;;;;18.42;9.98;;;-6.20;99.90;;;;;;5035174;28;20041;-76
2024/01/21 02:37:21;;;;;;;24.42;10.15;;;-6.20;99.90;;;;;;5037472;28;20108;-75
2024/01/21 02:39:46;;;;;;;21.35;10.88;;;-6.30;99.90;;;;;;5045333;28;20248;-76
2024/01/21 02:42:12;;;;;;;21.17;10.75;;;-6.30;99.90;;;;;;5048336;28;20104;-75
2024/01/21 02:44:39;;;;;;;20.15;9.88;;;-6.40;99.90;;;;;;5040031;28;20441;-74
2024/01/21 02:47:04;;;;;;;21.27;10.15;;;-6.40;99.90;;;;;;5048994;28;20021;-76
2024/01/21 02:49:30;;;;;;;21.13;9.15;;;-6.50;99.90;;;;;;5045997;28;20101;-76
2024/01/21 02:51:57;;;;;;;20.20;10.30;;;-6.50;99.90;;;;;;5055892;28;20107;-76
2024/01/21 02:54:23;;;;;;;19.88;9.05;;;-6.50;99.90;;;;;;5053484;28;20025;-75
2024/01/21 02:56:49;;;;;;;21.83;9.45;;;-6.40;99.90;;;;;;5060530;28;20081;-76
2024/01/21 02:59:15;;;;;;;19.52;9.68;;;-6.40;99.90;;;;;;5059404;28;20029;-76
2024/01/21 03:01:40;;;;;;;22.88;9.55;;;-6.40;99.90;;;;;;5036905;28;20087;-75
2024/01/21 03:04:09;;;;;;;20.10;9.15;;;-6.50;99.90;;;;;;5047388;28;20053;-75
2024/01/21 03:06:35;;;;;;;20.45;8.45;;;-6.50;99.90;;;;;;5042816;28;20022;-75
2024/01/21 03:09:00;;;;;;;16.65;7.78;;;-6.50;99.90;;;;;;5041042;28;20155;-76
2024/01/21 03:11:26;;;;;;;14.98;8.43;;;-6.60;99.90;;;;;;5044428;28;20025;-77
2024/01/21 03:13:53;;;;;;;19.45;9.40;;;-6.60;99.90;;;;;;5043890;28;20600;-76
2024/01/21 03:16:18;;;;;;;17.60;8.93;;;-6.40;99.90;;;;;;5037964;28;20101;-76
2024/01/21 03:18:44;;;;;;;24.33;9.57;;;-6.60;99.90;;;;;;5035118;28;20096;-76
2024/01/21 03:21:10;;;;;;;24.02;9.90;;;-6.50;99.90;;;;;;5046096;28;20057;-76
2024/01/21 03:23:35;;;;;;;20.25;9.05;;;-6.50;99.90;;;;;;5039526;28;20030;-76
2024/01/21 03:26:02;;;;;;;17.85;9.27;;;;;;;;;;5036650;28;20041;-76
2024/01/21 03:28:29;;;;;;;20.80;9.77;;;;;;;;;;5039026;28;20037;-76
2024/01/21 03:30:57;;;;;;;21.00;10.75;;;;;;;;;;5040153;28;20026;-75
2024/01/21 03:33:28;;;;;;;20.50;9.32;;;;;;;;;;5035796;28;20103;-75
2024/01/21 03:35:57;;;;;;;22.33;9.23;;;;;;;;;;5039933;28;20490;-75
2024/01/21 03:38:22;;;;;;;24.67;9.13;;;-6.60;99.90;;;;;;5046558;28;20017;-75
2024/01/21 03:40:48;;;;;;;19.25;9.27;;;-6.60;99.90;;;;;;5042666;28;20136;-75
2024/01/21 03:43:14;;;;;;;21.40;9.43;;;-6.70;99.90;;;;;;5039211;28;20458;-76
2024/01/21 03:45:39;;;;;;;18.35;7.95;;;-6.70;99.90;;;;;;5036708;28;20398;-77
2024/01/21 03:48:06;;;;;;;21.58;10.85;;;-6.70;99.90;;;;;;5052234;28;20078;-76
2024/01/21 03:50:31;;;;;;;24.15;11.27;;;-6.60;99.90;;;;;;5037938;28;20072;-76
2024/01/21 03:52:59;;;;;;;31.65;12.73;;;-6.60;99.90;;;;;;5031366;28;20018;-77
2024/01/21 03:55:25;;;;;;;26.63;12.57;;;-6.50;99.90;;;;;;5050184;28;20025;-76
2024/01/21 03:57:51;;;;;;;24.30;12.32;;;-6.60;99.90;;;;;;5041638;28;20120;-76
2024/01/21 04:00:17;;;;;;;25.35;10.95;;;-6.60;99.90;;;;;;5034515;28;20108;-76
2024/01/21 04:02:44;;;;;;;25.83;10.93;;;-6.60;99.90;;;;;;5040151;28;20048;-76
2024/01/21 04:05:11;;;;;;;21.15;10.10;;;-6.60;99.90;;;;;;5040809;28;20029;-75
2024/01/21 04:07:37;;;;;;;20.60;9.80;;;-6.60;99.90;;;;;;5036747;28;20021;-76
2024/01/21 04:10:06;;;;;;;21.80;10.30;;;-6.70;99.90;;;;;;5044271;28;20024;-76
2024/01/21 04:12:33;;;;;;;;;;;-6.70;99.90;;;;;;5053425;28;20043;-76
2024/01/21 04:14:58;;;;;;;21.02;10.02;;;-6.60;99.90;;;;;;5035427;28;19944;-77
2024/01/21 04:17:24;;;;;;;21.15;9.15;;;-6.60;99.90;;;;;;5034431;28;20060;-76
2024/01/21 04:19:51;;;;;;;21.02;9.70;;;-6.70;99.90;;;;;;5046560;28;20367;-76
2024/01/21 04:22:18;;;;;;;18.48;8.85;;;-6.70;99.90;;;;;;5036659;28;20546;-76
2024/01/21 04:24:46;;;;;;;20.90;9.13;;;-6.70;99.90;;;;;;5042113;28;20056;-76
2024/01/21 04:27:11;;;;;;;22.00;9.73;;;-6.70;99.90;;;;;;5041271;28;20033;-76
2024/01/21 04:29:39;;;;;;;16.00;8.10;;;-6.70;99.90;;;;;;5051942;28;20033;-76
2024/01/21 04:32:05;;;;;;;17.92;8.23;;;-6.70;99.90;;;;;;5045354;28;20071;-76
2024/01/21 04:34:32;;;;;;;20.25;8.70;;;-6.70;99.90;;;;;;5029678;28;20041;-76
2024/01/21 04:37:01;;;;;;;14.15;6.90;;;-6.70;99.90;;;;;;5041922;28;20036;-76
2024/01/21 04:39:27;;;;;;;17.50;8.00;;;-6.70;99.90;;;;;;5036971;28;20043;-77
2024/01/21 04:41:54;;;;;;;19.00;7.85;;;-6.60;99.90;;;;;;5053232;28;20041;-76
2024/01/21 04:44:20;;;;;;;15.45;7.28;;;-6.70;99.90;;;;;;5030272;28;20028;-76
2024/01/21 04:46:45;;;;;;;19.48;7.88;;;-6.60;99.90;;;;;;5048240;28;20032;-76
2024/01/21 04:49:11;;;;;;;15.60;8.13;;;-6.60;99.90;;;;;;5035354;28;20108;-76
2024/01/21 04:51:40;;;;;;;17.73;7.70;;;-6.60;99.90;;;;;;5039974;28;20273;-76
2024/01/21 04:54:06;;;;;;;19.65;8.57;;;-6.60;99.90;;;;;;5041679;28;20433;-76
2024/01/21 04:56:32;;;;;;;15.82;7.45;;;-6.60;99.90;;;;;;5049398;28;20044;-76
2024/01/21 04:58:57;;;;;;;18.33;7.38;;;-6.60;99.90;;;;;;5044322;28;20489;-76
2024/01/21 05:01:26;;;;;;;16.00;7.60;;;-6.50;99.90;;;;;;5032311;28;20022;-76
2024/01/21 05:03:52;;;;;;;15.70;7.30;;;-6.50;99.90;;;;;;5037103;28;20020;-76
2024/01/21 05:06:18;;;;;;;16.70;6.55;;;-6.40;99.90;;;;;;5041456;28;20040;-76
2024/01/21 05:08:44;;;;;;;14.77;6.70;;;-6.20;99.90;;;;;;5036404;28;20507;-76
2024/01/21 05:11:13;;;;;;;12.35;6.03;;;-6.00;99.90;;;;;;5038160;28;20033;-76
2024/01/21 05:13:38;;;;;;;14.63;5.90;;;-5.90;99.90;;;;;;5037734;28;20025;-76
2024/01/21 05:16:04;;;;;;;13.20;6.00;;;-5.70;99.90;;;;;;5046362;28;20025;-74
2024/01/21 05:18:30;;;;;;;11.65;6.30;;;-5.50;99.90;;;;;;5043505;28;20531;-73
2024/01/21 05:20:55;;;;;;;13.63;5.70;;;-5.40;99.90;;;;;;5040376;28;20032;-73
2024/01/21 05:23:21;;;;;;;12.45;5.78;;;-5.10;99.90;;;;;;5039757;28;20092;-73
2024/01/21 05:25:52;;;;;;;12.00;6.43;;;-5.10;99.90;;;;;;5036910;28;20451;-73
2024/01/21 05:28:21;;;;;;;15.77;6.95;;;-5.10;99.90;;;;;;5044136;28;20037;-74
2024/01/21 05:30:46;;;;;;;15.38;7.93;;;-5.10;99.90;;;;;;5038631;28;20092;-74
2024/01/21 05:33:12;;;;;;;13.40;5.68;;;-5.20;99.90;;;;;;5033750;28;20025;-74
2024/01/21 05:35:39;;;;;;;14.90;7.10;;;-5.30;99.90;;;;;;5036279;28;20107;-73
2024/01/21 05:38:05;;;;;;;17.60;8.13;;;-5.40;99.90;;;;;;5035326;28;20434;-74
2024/01/21 05:40:31;;;;;;;18.08;8.05;;;-5.40;99.90;;;;;;5037823;28;20030;-76
2024/01/21 05:42:56;;;;;;;16.55;8.10;;;-5.50;99.90;;;;;;5041902;28;20032;-75
2024/01/21 05:45:22;;;;;;;13.43;6.97;;;-5.50;99.90;;;;;;5040921;28;20018;-75
2024/01/21 05:47:48;;;;;;;16.67;7.20;;;-5.50;99.90;;;;;;5041131;28;20128;-75
2024/01/21 05:50:14;;;;;;;14.68;7.22;;;-5.60;99.90;;;;;;5039883;28;20108;-75
2024/01/21 05:52:39;;;;;;;20.55;8.13;;;-5.60;99.90;;;;;;5037924;28;20045;-75
2024/01/21 05:55:07;;;;;;;15.65;7.40;;;-5.60;99.90;;;;;;5042614;28;20026;-74
2024/01/21 05:57:34;;;;;;;16.05;6.85;;;-5.60;99.90;;;;;;5025503;28;20491;-75
2024/01/21 05:59:59;;;;;;;15.80;7.25;;;-5.50;99.90;;;;;;5042344;28;20028;-75
2024/01/21 06:02:25;;;;;;;13.48;6.72;;;-5.50;99.90;;;;;;5041282;28;20044;-76
2024/01/21 06:04:51;;;;;;;15.93;6.93;;;-5.50;99.90;;;;;;5047506;28;20227;-75
2024/01/21 06:07:17;;;;;;;12.00;5.80;;;-5.60;99.90;;;;;;5055163;28;20025;-75
2024/01/21 06:09:43;;;;;;;13.00;6.30;;;-5.60;99.90;;;;;;5035773;28;20618;-75
2024/01/21 06:12:10;;;;;;;10.48;5.60;;;-5.60;99.90;;;;;;5040103;28;20050;-76
2024/01/21 06:14:36;;;;;;;11.82;6.30;;;-5.60;99.90;;;;;;5047082;28;20044;-76
2024/01/21 06:17:02;;;;;;;12.48;6.60;;;-5.70;99.90;;;;;;5034671;28;20155;-75
2024/01/21 06:19:28;;;;;;;13.18;6.18;;;-5.70;99.90;;;;;;5040496;28;20028;-74
2024/01/21 06:21:54;;;;;;;14.07;6.78;;;-5.70;99.90;;;;;;5042294;28;20025;-75
2024/01/21 06:24:21;;;;;;;13.05;6.95;;;-5.80;99.90;;;;;;5045061;28;20041;-78
2024/01/21 06:26:48;;;;;;;23.77;8.32;;;-5.80;99.90;;;;;;5038071;28;20025;-78
2024/01/21 06:29:14;;;;;;;21.67;10.05;;;-5.70;99.90;;;;;;5042051;28;20402;-77
2024/01/21 06:31:40;;;;;;;19.63;9.32;;;-5.90;99.90;;;;;;5038072;28;20037;-78
2024/01/21 06:34:06;;;;;;;16.77;7.82;;;-5.90;99.90;;;;;;5041473;28;20056;-78
2024/01/21 06:36:31;;;;;;;14.52;7.55;;;-6.00;99.90;;;;;;5031973;28;20061;-75
2024/01/21 06:38:57;;;;;;;15.70;6.85;;;-6.00;99.90;;;;;;5040933;28;20032;-74
2024/01/21 06:41:23;;;;;;;16.73;7.72;;;-6.00;99.90;;;;;;5046222;28;20076;-75
2024/01/21 06:43:48;;;;;;;12.65;6.38;;;-6.10;99.90;;;;;;5036337;28;20561;-75
2024/01/21 06:46:20;;;;;;;12.57;6.20;;;-6.00;99.90;;;;;;5037707;28;20100;-77
2024/01/21 06:48:46;;;;;;;13.23;7.38;;;-6.00;99.90;;;;;;5042472;28;20377;-76
2024/01/21 06:51:21;;;;;;;15.43;6.65;;;-5.90;99.90;;;;;;5050168;28;20036;-76
2024/01/21 06:53:48;;;;;;;10.57;5.72;;;-5.90;99.90;;;;;;5038777;28;20035;-76
2024/01/21 06:56:14;;;;;;;13.15;6.43;;;-5.90;99.90;;;;;;5045857;28;20117;-77
2024/01/21 06:58:41;;;;;;;12.18;6.68;;;-6.00;99.90;;;;;;5025734;28;20570;-76
2024/01/21 07:01:07;;;;;;;12.50;5.93;;;-6.00;99.90;;;;;;5034155;28;20032;-77
2024/01/21 07:03:39;;;;;;;12.15;6.03;;;-6.00;99.90;;;;;;5042174;28;20033;-78
2024/01/21 07:06:05;;;;;;;10.70;6.30;;;-6.10;99.90;;;;;;5050338;28;20521;-79
2024/01/21 07:08:31;;;;;;;12.50;6.47;;;-6.10;99.90;;;;;;5048973;28;20041;-81
2024/01/21 07:10:57;;;;;;;14.50;7.10;;;-6.20;99.90;;;;;;5050099;28;20063;-80
2024/01/21 07:13:22;;;;;;;14.68;6.63;;;-6.20;99.90;;;;;;5049527;28;20033;-78
2024/01/21 07:15:48;;;;;;;15.25;6.55;;;-6.10;99.90;;;;;;5048728;28;20032;-78
2024/01/21 07:18:14;;;;;;;12.05;6.07;;;-6.10;99.90;;;;;;5033450;28;20018;-79
2024/01/21 07:20:40;;;;;;;14.90;6.55;;;-6.10;99.90;;;;;;5040313;28;20021;-79
2024/01/21 07:23:06;;;;;;;15.90;7.05;;;-6.10;99.90;;;;;;5041254;28;20029;-78
2024/01/21 07:25:37;;;;;;;11.65;6.75;;;-6.00;99.90;;;;;;5028664;28;20045;-79
2024/01/21 07:28:03;;;;;;;16.08;7.45;;;-6.00;99.90;;;;;;5035259;28;20024;-79
2024/01/21 07:30:28;;;;;;;14.82;7.03;;;-6.00;99.90;;;;;;5056357;28;20021;-79
2024/01/21 07:32:54;;;;;;;18.27;7.70;;;-6.00;99.90;;;;;;5042954;28;20031;-79
2024/01/21 07:35:20;;;;;;;15.77;8.00;;;-6.00;99.90;;;;;;5049367;28;20029;-79
2024/01/21 07:37:46;;;;;;;16.38;8.02;;;-5.90;99.90;;;;;;5044788;28;20412;-79
2024/01/21 07:40:13;;;;;;;15.25;7.32;;;-5.90;99.90;;;;;;5044535;28;20025;-81
2024/01/21 07:42:38;;;;;;;15.45;7.95;;;-5.80;99.90;;;;;;5040218;28;20118;-81
2024/01/21 07:45:04;;;;;;;21.08;7.55;;;-5.70;99.90;;;;;;5043793;28;20029;-81
2024/01/21 07:47:31;;;;;;;19.50;9.63;;;-5.70;99.90;;;;;;5029837;28;20590;-78
2024/01/21 07:49:57;;;;;;;21.95;9.02;;;-5.50;99.90;;;;;;5050128;28;20504;-81
2024/01/21 07:52:23;;;;;;;14.43;7.60;;;-5.40;99.90;;;;;;5048784;28;20028;-80
2024/01/21 07:54:49;;;;;;;15.50;7.90;;;-5.30;99.90;;;;;;5045290;28;20626;-80
2024/01/21 07:57:15;;;;;;;17.00;7.40;;;-5.20;99.90;;;;;;5044677;28;20398;-80
2024/01/21 07:59:40;;;;;;;22.20;10.38;;;-5.10;99.90;;;;;;5034850;28;20030;-81
2024/01/21 08:02:08;;;;;;;23.00;9.85;;;-5.00;99.90;;;;;;5035880;28;20025;-81
2024/01/21 08:04:34;;;;;;;23.23;10.88;;;-4.80;99.90;;;;;;5019225;28;20029;-78
2024/01/21 08:07:00;;;;;;;29.08;10.40;;;;;;;;;;5035565;28;20540;-80
2024/01/21 08:09:27;;;;;;;18.70;9.13;;;;;;;;;;5049736;28;20079;-79
2024/01/21 08:11:53;;;;;;;20.48;9.38;;;;;;;;;;5046474;28;20048;-79
2024/01/21 08:14:19;;;;;;;18.08;9.27;;;;;;;;;;5042371;28;20398;-79
2024/01/21 08:16:45;;;;;;;17.20;9.43;;;;;;;;;;5031224;28;20213;-79
2024/01/21 08:19:12;;;;;;;19.63;9.70;;;;;;;;;;5029151;28;20021;-79
2024/01/21 08:21:38;;;;;;;20.58;10.05;;;-3.70;99.90;;;;;;5040448;28;20029;-78
2024/01/21 08:24:03;;;;;;;21.27;10.20;;;-3.60;99.90;;;;;;5049579;28;20474;-79
2024/01/21 08:26:29;;;;;;;17.45;8.43;;;-3.50;99.90;;;;;;5035315;28;20458;-78
2024/01/21 08:28:55;;;;;;;17.23;9.65;;;-3.40;99.90;;;;;;5044671;28;20032;-79
2024/01/21 08:31:20;;;;;;;19.35;9.38;;;-3.30;99.90;;;;;;5051188;28;20032;-78
2024/01/21 08:33:46;;;;;;;17.10;8.95;;;-3.20;99.90;;;;;;5042596;28;20089;-78
2024/01/21 08:36:15;;;;;;;19.55;10.13;;;;;;;;;;5043441;28;20036;-80
2024/01/21 08:38:41;;;;;;;21.50;11.60;;;;;;;;;;5047317;28;20032;-81
2024/01/21 08:41:07;;;;;;;21.13;9.45;;;;;;;;;;5051988;28;20020;-78
2024/01/21 08:43:33;;;;;;;19.92;10.77;;;;;;;;;;5031168;28;20060;-80
2024/01/21 08:45:59;;;;;;;18.23;10.30;;;;;;;;;;5046600;28;20121;-80
2024/01/21 08:48:26;;;;;;;22.25;11.35;;;-2.30;99.90;;;;;;5041922;28;20419;-80
2024/01/21 08:50:55;;;;;;;20.58;12.18;;;-2.30;99.90;;;;;;5047260;28;20045;-80
2024/01/21 08:53:22;;;;;;;21.70;11.30;;;-2.20;99.90;;;;;;5047080;28;20021;-80
2024/01/21 08:55:47;;;;;;;21.98;11.77;;;-2.20;99.90;;;;;;5040781;28;20462;-80
2024/01/21 08:58:13;;;;;;;22.05;11.55;;;-2.20;99.90;;;;;;5046783;28;20108;-80
2024/01/21 09:00:39;;;;;;;21.27;11.25;;;-2.20;99.90;;;;;;5039692;28;20028;-80
2024/01/21 09:03:05;;;;;;;20.73;10.90;;;-2.10;99.90;;;;;;5040290;28;20021;-81
2024/01/21 09:05:31;;;;;;;19.00;10.80;;;-2.10;99.90;;;;;;5044943;28;20021;-79
2024/01/21 09:07:56;;;;;;;20.30;10.45;;;-2.10;99.90;;;;;;5046430;28;20024;-79
2024/01/21 09:10:22;;;;;;;17.23;10.20;;;-2.00;99.90;;;;;;5047798;28;20016;-79
2024/01/21 09:12:48;;;;;;;21.08;9.38;;;-2.00;99.90;;;;;;5043755;28;20098;-80
2024/01/21 09:15:14;;;;;;;17.67;9.38;;;-2.00;99.90;;;;;;5036623;28;20056;-80
2024/01/21 09:17:41;;;;;;;16.58;9.18;;;-1.90;99.90;;;;;;5045929;28;20040;-78
2024/01/21 09:20:07;;;;;;;19.25;10.65;;;-1.90;99.90;;;;;;5033896;28;20013;-79
2024/01/21 09:22:33;;;;;;;17.98;9.43;;;-1.80;99.90;;;;;;5040169;28;20134;-78
2024/01/21 09:25:00;;;;;;;19.40;9.57;;;-1.80;99.90;;;;;;5036860;28;20125;-78
2024/01/21 09:27:26;;;;;;;21.63;10.73;;;-1.80;99.90;;;;;;5031070;28;20033;-81
2024/01/21 09:29:51;;;;;;;19.80;10.90;;;-1.70;99.90;;;;;;5055538;28;20081;-81
2024/01/21 09:32:17;;;;;;;18.55;10.95;;;-1.60;99.90;;;;;;5046736;28;20033;-80
2024/01/21 09:34:44;;;;;;;19.45;11.45;;;-1.50;99.90;;;;;;5036809;28;20021;-79
2024/01/21 09:37:11;;;;;;;29.20;13.07;;;-1.40;99.90;;;;;;5047468;28;20064;-79
2024/01/21 09:39:37;;;;;;;20.92;11.90;;;-1.30;99.90;;;;;;5039990;28;20124;-80
2024/01/21 09:42:09;;;;;;;20.08;11.25;;;-1.20;99.90;;;;;;5048525;28;20108;-79
2024/01/21 09:44:37;;;;;;;23.95;12.40;;;-1.00;99.90;;;;;;5045634;28;20025;-79
2024/01/21 09:47:03;;;;;;;20.55;11.35;;;-1.00;99.90;;;;;;5048479;28;20029;-79
2024/01/21 09:49:31;;;;;;;16.73;8.90;;;;;;;;;;5039403;28;20098;-80
2024/01/21 09:51:57;;;;;;;20.73;9.25;;;;;;;;;;5044253;28;20022;-79
2024/01/21 09:54:29;;;;;;;12.90;5.43;;;;;;;;;;5035350;28;20087;-80
2024/01/21 09:56:54;;;;;;;10.10;5.18;;;0.10;99.90;;;;;;5048122;28;20036;-80
2024/01/21 09:59:21;;;;;;;11.05;5.93;;;0.20;99.90;;;;;;5047443;28;20021;-81
2024/01/21 10:01:49;;;;;;;11.43;6.25;;;0.30;99.90;;;;;;5044726;28;20025;-81
2024/01/21 10:04:19;;;;;;;13.48;6.75;;;;;;;;;;5043560;28;20021;-80
2024/01/21 10:06:46;;;;;;;13.30;7.38;;;1.20;99.90;;;;;;5039503;28;20278;-80
2024/01/21 10:09:16;;;;;;;13.80;7.35;;;0.90;99.90;;;;;;5030504;28;20053;-80
2024/01/21 10:11:48;;;;;;;10.23;6.65;;;1.30;99.90;;;;;;5046441;28;20633;-80
2024/01/21 10:14:13;;;;;;;12.00;6.75;;;1.50;99.90;;;;;;5048579;28;20423;-80
2024/01/21 10:16:43;;;;;;;11.07;6.63;;;1.70;99.90;;;;;;5041545;28;20034;-81
2024/01/21 10:19:23;;;;;;;16.00;8.30;;;1.80;99.90;;;;;;5041690;28;20492;-81
2024/01/21 10:21:51;;;;;;;16.98;9.65;;;1.90;99.90;;;;;;5045477;28;20071;-82
2024/01/21 10:24:21;;;;;;;20.75;11.75;;;2.00;99.90;;;;;;5043506;28;20064;-81
2024/01/21 10:26:49;;;;;;;20.42;11.98;;;;;;;;;;5038231;28;20513;-81
2024/01/21 10:29:15;;;;;;;23.90;12.75;;;;;;;;;;5044463;28;20070;-82
2024/01/21 10:31:41;;;;;;;20.00;12.52;;;;;;;;;;5040597;28;20432;-82
2024/01/21 10:34:09;;;;;;;20.52;11.98;;;;;;;;;;5039024;28;20394;-82
2024/01/21 10:36:35;;;;;;;22.25;12.52;;;;;;;;;;5039962;28;20029;-82
2024/01/21 10:39:06;;;;;;;22.60;13.13;;;;;;;;;;5041071;28;20404;-80
2024/01/21 10:41:33;;;;;;;22.25;12.52;;;;;;;;;;5047211;28;20056;-81
2024/01/21 10:44:00;;;;;;;28.02;11.95;;;;;;;;;;5052725;28;20027;-81
2024/01/21 10:46:26;;;;;;;21.65;11.57;;;2.40;99.90;;;;;;5047698;28;20048;-80
2024/01/21 10:48:57;;;;;;;23.40;12.05;;;2.40;99.90;;;;;;5049975;28;20017;-80
2024/01/21 10:51:23;;;;;;;19.55;11.43;;;2.40;99.90;;;;;;5039382;28;20501;-81
2024/01/21 10:53:53;;;;;;;18.48;10.68;;;2.50;99.90;;;;;;5037879;28;20025;-81
2024/01/21 10:56:23;;;;;;;;;;;2.60;99.90;;;;;;5051521;28;20123;-82
2024/01/21 10:58:49;;;;;;;16.33;9.13;;;2.80;99.90;;;;;;5040182;28;19919;-80
2024/01/21 11:01:16;;;;;;;31.65;11.48;;;3.10;99.90;;;;;;5032756;28;20475;-81
2024/01/21 11:03:43;;;;;;;28.38;11.38;;;3.30;99.90;;;;;;5047522;28;20036;-81
2024/01/21 11:06:11;;;;;;;26.23;11.00;;;;;;;;;;5043569;28;20021;-81
2024/01/21 11:08:40;;;;;;;20.75;11.23;;;3.70;99.90;;;;;;5032117;28;20026;-81
2024/01/21 11:11:09;;;;;;;18.67;10.75;;;3.80;99.90;;;;;;5044581;28;20025;-82
2024/01/21 11:14:00;;;;;;;21.27;10.80;;;3.90;99.90;;;;;;5040573;28;20163;-82
2024/01/21 11:16:26;;;;;;;20.48;11.35;;;3.90;99.90;;;;;;5035007;28;20041;-82
2024/01/21 11:19:09;;;;;;;19.85;11.05;;;3.90;99.90;;;;;;5029857;28;20053;-84
2024/01/21 11:21:42;;;;;;;18.17;9.98;;;4.00;99.90;;;;;;5041257;28;20425;-82
2024/01/21 11:24:13;;;;;;;17.48;10.73;;;4.00;99.90;;;;;;5033084;28;20493;-84
2024/01/21 11:26:47;;;;;;;22.15;9.85;;;4.00;99.90;;;;;;5033389;28;20054;-83
2024/01/21 11:29:31;;;;;;;17.48;8.15;;;3.90;99.90;;;;;;5043272;28;20071;-82
2024/01/21 11:32:05;;;;;;;17.33;8.90;;;3.80;99.90;;;;;;5040589;28;20167;-82
2024/01/21 11:34:39;;;;;;;27.42;12.27;;;3.90;99.90;;;;;;5040215;28;20033;-80
2024/01/21 11:37:06;;;;;;;21.80;10.70;;;4.00;99.90;;;;;;5038257;28;20535;-79
2024/01/21 11:39:32;;;;;;;21.02;9.48;;;4.00;99.90;;;;;;5040554;28;20542;-84
2024/01/21 11:41:57;;;;;;;21.88;10.95;;;4.00;99.90;;;;;;5050418;28;20158;-79
2024/01/21 11:44:25;;;;;;;17.23;10.18;;;4.10;99.90;;;;;;5046399;28;20013;-82
2024/01/21 11:46:54;;;;;;;35.15;11.75;;;4.10;99.90;;;;;;5046590;28;20031;-78
2024/01/21 11:49:21;;;;;;;17.60;10.90;;;4.10;99.90;;;;;;5031782;28;20515;-81
2024/01/21 11:51:47;;;;;;;21.33;11.38;;;4.20;99.90;;;;;;5033459;28;20268;-81
2024/01/21 11:54:13;;;;;;;19.63;10.57;;;4.20;99.90;;;;;;5034827;28;20017;-80
2024/01/21 11:56:43;;;;;;;24.25;11.25;;;4.20;99.90;;;;;;5049219;28;20033;-76
2024/01/21 11:59:10;;;;;;;23.30;11.57;;;4.20;99.90;;;;;;5045171;28;20409;-80
2024/01/21 12:01:38;;;;;;;25.27;11.65;;;4.20;99.90;;;;;;5046737;28;20025;-80
2024/01/21 12:04:06;;;;;;;25.70;13.52;;;4.20;99.90;;;;;;5046816;28;20407;-79
2024/01/21 12:06:32;;;;;;;27.73;13.43;;;4.20;99.90;;;;;;5042570;28;20108;-80
2024/01/21 12:09:02;;;;;;;23.30;13.02;;;3.90;99.90;;;;;;5047177;28;20412;-80
2024/01/21 12:11:37;;;;;;;23.20;13.88;;;3.70;99.90;;;;;;5033792;28;20414;-79
2024/01/21 12:14:13;;;;;;;28.70;13.77;;;3.40;99.90;;;;;;5041261;28;20029;-81
2024/01/21 12:16:42;;;;;;;24.65;13.48;;;3.20;99.90;;;;;;5031429;28;20057;-80
2024/01/21 12:19:10;;;;;;;23.33;13.52;;;3.10;99.90;;;;;;5041632;28;20104;-82
2024/01/21 12:21:35;;;;;;;28.77;14.82;;;3.10;99.90;;;;;;5042482;28;20509;-79
2024/01/21 12:24:02;;;;;;;24.38;13.60;;;3.10;99.90;;;;;;5036846;28;20041;-79
2024/01/21 12:26:28;;;;;;;21.63;12.45;;;3.20;99.90;;;;;;5039634;28;20033;-80
2024/01/21 12:29:01;;;;;;;26.33;12.75;;;3.20;99.90;;;;;;5048311;28;20036;-77
2024/01/21 12:31:34;;;;;;;20.00;11.23;;;3.50;99.90;;;;;;5039614;28;20046;-79
2024/01/21 12:34:01;;;;;;;20.90;12.35;;;3.70;99.90;;;;;;5040154;28;20495;-80
2024/01/21 12:36:30;;;;;;;24.95;13.02;;;3.70;99.90;;;;;;5030284;28;20043;-79
2024/01/21 12:38:57;;;;;;;28.27;15.18;;;3.70;99.90;;;;;;5038670;28;20033;-77
2024/01/21 12:41:22;;;;;;;28.65;13.77;;;3.70;99.90;;;;;;5044244;28;20385;-77